sensor_id;sensor_type;location;lat;lon;timestamp;temperature;humidity
7117;DHT22;3600;48.568;7.870;2024-03-25T00:02:19;5.30;99.90
7117;DHT22;3600;48.568;7.870;2024-03-25T00:08:00;5.30;99.90
7117;DHT22;3600;48.568;7.870;2024-03-25T00:10:45;5.30;99.90
7117;DHT22;3600;48.568;7.870;2024-03-25T00:13:22;5.30;99.90
7117;DHT22;3600;48.568;7.870;2024-03-25T00:15:57;5.40;99.90
7117;DHT22;3600;48.568;7.870;2024-03-25T00:18:27;5.30;99.90
7117;DHT22;3600;48.568;7.870;2024-03-25T00:20:59;5.30;99.90
7117;DHT22;3600;48.568;7.870;2024-03-25T00:23:37;5.30;99.90
7117;DHT22;3600;48.568;7.870;2024-03-25T00:26:31;5.20;99.90
7117;DHT22;3600;48.568;7.870;2024-03-25T00:29:31;5.20;99.90
7117;DHT22;3600;48.568;7.870;2024-03-25T00:32:21;5.20;99.90
7117;DHT22;3600;48.568;7.870;2024-03-25T00:35:25;5.10;99.90
7117;DHT22;3600;48.568;7.870;2024-03-25T00:38:06;5.10;99.90
7117;DHT22;3600;48.568;7.870;2024-03-25T00:41:07;5.10;99.90
7117;DHT22;3600;48.568;7.870;2024-03-25T00:43:42;5.10;99.90
7117;DHT22;3600;48.568;7.870;2024-03-25T00:46:21;5.10;99.90
7117;DHT22;3600;48.568;7.870;2024-03-25T00:48:59;5.10;99.90
7117;DHT22;3600;48.568;7.870;2024-03-25T00:51:49;5.00;99.90
7117;DHT22;3600;48.568;7.870;2024-03-25T00:54:21;5.00;99.90
7117;DHT22;3600;48.568;7.870;2024-03-25T00:56:53;5.00;99.90
7117;DHT22;3600;48.568;7.870;2024-03-25T01:02:52;4.90;99.90
7117;DHT22;3600;48.568;7.870;2024-03-25T01:05:39;4.90;99.90
7117;DHT22;3600;48.568;7.870;2024-03-25T01:08:20;4.90;99.90
7117;DHT22;3600;48.568;7.870;2024-03-25T01:10:58;4.90;99.90
7117;DHT22;3600;48.568;7.870;2024-03-25T01:13:30;4.80;99.90
7117;DHT22;3600;48.568;7.870;2024-03-25T01:16:05;4.80;99.90
7117;DHT22;3600;48.568;7.870;2024-03-25T01:18:34;4.70;99.90
7117;DHT22;3600;48.568;7.870;2024-03-25T01:21:44;4.70;99.90
7117;DHT22;3600;48.568;7.870;2024-03-25T01:24:14;4.70;99.90
7117;DHT22;3600;48.568;7.870;2024-03-25T01:26:45;4.70;99.90
7117;DHT22;3600;48.568;7.870;2024-03-25T01:29:24;4.70;99.90
7117;DHT22;3600;48.568;7.870;2024-03-25T01:32:14;4.70;99.90
7117;DHT22;3600;48.568;7.870;2024-03-25T01:35:09;4.70;99.90
7117;DHT22;3600;48.568;7.870;2024-03-25T01:38:25;4.70;99.90
7117;DHT22;3600;48.568;7.870;2024-03-25T01:41:37;4.70;99.90
7117;DHT22;3600;48.568;7.870;2024-03-25T01:47:14;4.70;99.90
7117;DHT22;3600;48.568;7.870;2024-03-25T01:49:46;4.60;99.90
7117;DHT22;3600;48.568;7.870;2024-03-25T01:52:25;4.70;99.90
7117;DHT22;3600;48.568;7.870;2024-03-25T01:55:01;4.70;99.90
7117;DHT22;3600;48.568;7.870;2024-03-25T01:57:33;4.60;99.90
7117;DHT22;3600;48.568;7.870;2024-03-25T02:00:16;4.60;99.90
7117;DHT22;3600;48.568;7.870;2024-03-25T02:03:13;4.60;99.90
7117;DHT22;3600;48.568;7.870;2024-03-25T02:06:03;4.60;99.90
7117;DHT22;3600;48.568;7.870;2024-03-25T02:08:38;4.70;99.90
7117;DHT22;3600;48.568;7.870;2024-03-25T02:11:16;4.60;99.90
7117;DHT22;3600;48.568;7.870;2024-03-25T02:14:08;4.60;99.90
7117;DHT22;3600;48.568;7.870;2024-03-25T02:16:49;4.60;99.90
7117;DHT22;3600;48.568;7.870;2024-03-25T02:19:32;4.60;99.90
7117;DHT22;3600;48.568;7.870;2024-03-25T02:22:18;4.50;99.90
7117;DHT22;3600;48.568;7.870;2024-03-25T02:25:15;4.50;99.90
7117;DHT22;3600;48.568;7.870;2024-03-25T02:28:11;4.40;99.90
7117;DHT22;3600;48.568;7.870;2024-03-25T02:30:48;4.50;99.90
7117;DHT22;3600;48.568;7.870;2024-03-25T02:33:19;4.50;99.90
7117;DHT22;3600;48.568;7.870;2024-03-25T02:35:53;4.50;99.90
7117;DHT22;3600;48.568;7.870;2024-03-25T02:38:41;4.50;99.90
7117;DHT22;3600;48.568;7.870;2024-03-25T02:41:44;4.50;99.90
7117;DHT22;3600;48.568;7.870;2024-03-25T02:44:23;4.50;99.90
7117;DHT22;3600;48.568;7.870;2024-03-25T02:46:55;4.40;99.90
7117;DHT22;3600;48.568;7.870;2024-03-25T02:49:42;4.40;99.90
7117;DHT22;3600;48.568;7.870;2024-03-25T02:52:28;4.40;99.90
7117;DHT22;3600;48.568;7.870;2024-03-25T02:55:02;4.40;99.90
7117;DHT22;3600;48.568;7.870;2024-03-25T02:57:30;4.40;99.90
7117;DHT22;3600;48.568;7.870;2024-03-25T03:00:05;4.40;99.90
7117;DHT22;3600;48.568;7.870;2024-03-25T03:02:43;4.40;99.90
7117;DHT22;3600;48.568;7.870;2024-03-25T03:05:11;4.40;99.90
7117;DHT22;3600;48.568;7.870;2024-03-25T03:07:57;4.40;99.90
7117;DHT22;3600;48.568;7.870;2024-03-25T03:10:23;4.40;99.90
7117;DHT22;3600;48.568;7.870;2024-03-25T03:12:52;4.40;99.90
7117;DHT22;3600;48.568;7.870;2024-03-25T03:15:27;4.40;99.90
7117;DHT22;3600;48.568;7.870;2024-03-25T03:18:06;4.30;99.90
7117;DHT22;3600;48.568;7.870;2024-03-25T03:20:58;4.30;99.90
7117;DHT22;3600;48.568;7.870;2024-03-25T03:23:39;4.30;99.90
7117;DHT22;3600;48.568;7.870;2024-03-25T03:26:20;4.30;99.90
7117;DHT22;3600;48.568;7.870;2024-03-25T03:29:10;4.30;99.90
7117;DHT22;3600;48.568;7.870;2024-03-25T03:31:46;4.30;99.90
7117;DHT22;3600;48.568;7.870;2024-03-25T03:37:24;4.30;99.90
7117;DHT22;3600;48.568;7.870;2024-03-25T03:39:57;4.40;99.90
7117;DHT22;3600;48.568;7.870;2024-03-25T03:42:35;4.40;99.90
7117;DHT22;3600;48.568;7.870;2024-03-25T03:45:05;4.50;99.90
7117;DHT22;3600;48.568;7.870;2024-03-25T03:48:03;4.40;99.90
7117;DHT22;3600;48.568;7.870;2024-03-25T03:51:02;4.50;99.90
7117;DHT22;3600;48.568;7.870;2024-03-25T03:53:31;4.50;99.90
7117;DHT22;3600;48.568;7.870;2024-03-25T03:56:15;4.40;99.90
7117;DHT22;3600;48.568;7.870;2024-03-25T03:59:23;4.40;99.90
7117;DHT22;3600;48.568;7.870;2024-03-25T04:01:49;4.50;99.90
7117;DHT22;3600;48.568;7.870;2024-03-25T04:07:12;4.50;99.90
7117;DHT22;3600;48.568;7.870;2024-03-25T04:09:49;4.50;99.90
7117;DHT22;3600;48.568;7.870;2024-03-25T04:12:45;4.40;99.90
7117;DHT22;3600;48.568;7.870;2024-03-25T04:15:22;4.40;99.90
7117;DHT22;3600;48.568;7.870;2024-03-25T04:18:01;4.40;99.90
7117;DHT22;3600;48.568;7.870;2024-03-25T04:23:55;4.30;99.90
7117;DHT22;3600;48.568;7.870;2024-03-25T04:26:40;4.30;99.90
7117;DHT22;3600;48.568;7.870;2024-03-25T04:29:19;4.30;99.90
7117;DHT22;3600;48.568;7.870;2024-03-25T04:31:54;4.30;99.90
7117;DHT22;3600;48.568;7.870;2024-03-25T04:34:35;4.40;99.90
7117;DHT22;3600;48.568;7.870;2024-03-25T04:37:18;4.40;99.90
7117;DHT22;3600;48.568;7.870;2024-03-25T04:39:52;4.40;99.90
7117;DHT22;3600;48.568;7.870;2024-03-25T04:42:24;4.50;99.90
7117;DHT22;3600;48.568;7.870;2024-03-25T04:45:12;4.40;99.90
7117;DHT22;3600;48.568;7.870;2024-03-25T04:47:51;4.40;99.90
7117;DHT22;3600;48.568;7.870;2024-03-25T04:50:58;4.50;99.90
7117;DHT22;3600;48.568;7.870;2024-03-25T04:56:36;4.40;99.90
7117;DHT22;3600;48.568;7.870;2024-03-25T04:59:04;4.40;99.90
7117;DHT22;3600;48.568;7.870;2024-03-25T05:01:36;4.50;99.90
7117;DHT22;3600;48.568;7.870;2024-03-25T05:04:50;4.40;99.90
7117;DHT22;3600;48.568;7.870;2024-03-25T05:07:43;4.50;99.90
7117;DHT22;3600;48.568;7.870;2024-03-25T05:10:26;4.60;99.90
7117;DHT22;3600;48.568;7.870;2024-03-25T05:13:12;4.60;99.90
7117;DHT22;3600;48.568;7.870;2024-03-25T05:16:00;4.80;99.90
7117;DHT22;3600;48.568;7.870;2024-03-25T05:18:55;4.80;99.90
7117;DHT22;3600;48.568;7.870;2024-03-25T05:21:39;4.70;99.90
7117;DHT22;3600;48.568;7.870;2024-03-25T05:24:22;4.60;99.90
7117;DHT22;3600;48.568;7.870;2024-03-25T05:26:56;4.60;99.90
7117;DHT22;3600;48.568;7.870;2024-03-25T05:32:48;4.50;99.90
7117;DHT22;3600;48.568;7.870;2024-03-25T05:35:23;4.50;99.90
7117;DHT22;3600;48.568;7.870;2024-03-25T05:41:05;4.50;99.90
7117;DHT22;3600;48.568;7.870;2024-03-25T05:44:09;4.50;99.90
7117;DHT22;3600;48.568;7.870;2024-03-25T05:46:42;4.50;99.90
7117;DHT22;3600;48.568;7.870;2024-03-25T05:49:15;4.60;99.90
7117;DHT22;3600;48.568;7.870;2024-03-25T05:52:23;4.60;99.90
7117;DHT22;3600;48.568;7.870;2024-03-25T05:55:03;4.60;99.90
7117;DHT22;3600;48.568;7.870;2024-03-25T05:57:47;4.60;99.90
7117;DHT22;3600;48.568;7.870;2024-03-25T06:00:43;4.60;99.90
7117;DHT22;3600;48.568;7.870;2024-03-25T06:03:37;4.60;99.90
7117;DHT22;3600;48.568;7.870;2024-03-25T06:06:09;4.60;99.90
7117;DHT22;3600;48.568;7.870;2024-03-25T06:08:39;4.60;99.90
7117;DHT22;3600;48.568;7.870;2024-03-25T06:11:08;4.60;99.90
7117;DHT22;3600;48.568;7.870;2024-03-25T06:13:39;4.60;99.90
7117;DHT22;3600;48.568;7.870;2024-03-25T06:16:17;4.50;99.90
7117;DHT22;3600;48.568;7.870;2024-03-25T06:19:06;4.60;99.90
7117;DHT22;3600;48.568;7.870;2024-03-25T06:21:37;4.60;99.90
7117;DHT22;3600;48.568;7.870;2024-03-25T06:24:14;4.50;99.90
7117;DHT22;3600;48.568;7.870;2024-03-25T06:26:43;4.60;99.90
7117;DHT22;3600;48.568;7.870;2024-03-25T06:29:18;4.60;99.90
7117;DHT22;3600;48.568;7.870;2024-03-25T06:32:07;4.60;99.90
7117;DHT22;3600;48.568;7.870;2024-03-25T06:34:54;4.60;99.90
7117;DHT22;3600;48.568;7.870;2024-03-25T06:37:25;4.60;99.90
7117;DHT22;3600;48.568;7.870;2024-03-25T06:40:12;4.70;99.90
7117;DHT22;3600;48.568;7.870;2024-03-25T06:42:59;4.70;99.90
7117;DHT22;3600;48.568;7.870;2024-03-25T06:45:25;4.70;99.90
7117;DHT22;3600;48.568;7.870;2024-03-25T06:47:51;4.70;99.90
7117;DHT22;3600;48.568;7.870;2024-03-25T06:50:20;4.80;99.90
7117;DHT22;3600;48.568;7.870;2024-03-25T06:52:57;4.80;99.90
7117;DHT22;3600;48.568;7.870;2024-03-25T06:55:59;4.90;99.90
7117;DHT22;3600;48.568;7.870;2024-03-25T07:01:29;5.00;99.90
7117;DHT22;3600;48.568;7.870;2024-03-25T07:04:12;5.00;99.90
7117;DHT22;3600;48.568;7.870;2024-03-25T07:07:15;4.90;99.90
7117;DHT22;3600;48.568;7.870;2024-03-25T07:09:41;5.10;99.90
7117;DHT22;3600;48.568;7.870;2024-03-25T07:12:15;5.30;99.90
7117;DHT22;3600;48.568;7.870;2024-03-25T07:14:41;5.40;99.90
7117;DHT22;3600;48.568;7.870;2024-03-25T07:17:16;5.50;99.90
7117;DHT22;3600;48.568;7.870;2024-03-25T07:20:07;5.50;99.90
7117;DHT22;3600;48.568;7.870;2024-03-25T07:22:50;5.60;99.90
7117;DHT22;3600;48.568;7.870;2024-03-25T07:25:18;5.60;99.90
7117;DHT22;3600;48.568;7.870;2024-03-25T07:28:02;5.70;99.90
7117;DHT22;3600;48.568;7.870;2024-03-25T07:30:45;5.80;99.90
7117;DHT22;3600;48.568;7.870;2024-03-25T07:33:43;5.90;99.90
7117;DHT22;3600;48.568;7.870;2024-03-25T07:36:25;6.00;99.90
7117;DHT22;3600;48.568;7.870;2024-03-25T07:38:57;6.00;99.90
7117;DHT22;3600;48.568;7.870;2024-03-25T07:41:32;6.00;99.90
7117;DHT22;3600;48.568;7.870;2024-03-25T07:44:05;6.20;99.90
7117;DHT22;3600;48.568;7.870;2024-03-25T07:46:40;6.30;99.90
7117;DHT22;3600;48.568;7.870;2024-03-25T07:49:27;6.40;99.90
7117;DHT22;3600;48.568;7.870;2024-03-25T07:52:09;6.40;99.90
7117;DHT22;3600;48.568;7.870;2024-03-25T07:55:09;6.40;99.90
7117;DHT22;3600;48.568;7.870;2024-03-25T08:01:11;6.40;99.90
7117;DHT22;3600;48.568;7.870;2024-03-25T08:04:16;6.40;99.90
7117;DHT22;3600;48.568;7.870;2024-03-25T08:07:17;6.40;99.90
7117;DHT22;3600;48.568;7.870;2024-03-25T08:10:14;6.40;99.90
7117;DHT22;3600;48.568;7.870;2024-03-25T08:16:51;6.60;99.90
7117;DHT22;3600;48.568;7.870;2024-03-25T08:20:00;6.70;99.90
7117;DHT22;3600;48.568;7.870;2024-03-25T08:25:57;6.70;99.90
7117;DHT22;3600;48.568;7.870;2024-03-25T08:29:12;6.80;99.90
7117;DHT22;3600;48.568;7.870;2024-03-25T08:32:51;6.90;99.90
7117;DHT22;3600;48.568;7.870;2024-03-25T08:38:20;7.10;99.90
7117;DHT22;3600;48.568;7.870;2024-03-25T08:44:06;7.10;99.90
7117;DHT22;3600;48.568;7.870;2024-03-25T08:46:56;7.10;99.90
7117;DHT22;3600;48.568;7.870;2024-03-25T08:49:35;7.10;99.90
7117;DHT22;3600;48.568;7.870;2024-03-25T08:52:16;7.20;99.90
7117;DHT22;3600;48.568;7.870;2024-03-25T08:54:55;7.20;99.90
7117;DHT22;3600;48.568;7.870;2024-03-25T08:58:01;7.20;99.90
7117;DHT22;3600;48.568;7.870;2024-03-25T09:01:12;7.30;99.90
7117;DHT22;3600;48.568;7.870;2024-03-25T09:04:07;7.40;99.90
7117;DHT22;3600;48.568;7.870;2024-03-25T09:06:59;7.40;99.90
7117;DHT22;3600;48.568;7.870;2024-03-25T09:09:30;7.40;99.90
7117;DHT22;3600;48.568;7.870;2024-03-25T09:12:44;7.50;99.90
7117;DHT22;3600;48.568;7.870;2024-03-25T09:15:25;7.40;99.90
7117;DHT22;3600;48.568;7.870;2024-03-25T09:18:08;7.70;99.90
7117;DHT22;3600;48.568;7.870;2024-03-25T09:21:17;7.80;99.90
7117;DHT22;3600;48.568;7.870;2024-03-25T09:23:59;7.80;99.90
7117;DHT22;3600;48.568;7.870;2024-03-25T09:26:34;7.70;99.90
7117;DHT22;3600;48.568;7.870;2024-03-25T09:29:16;7.80;99.90
7117;DHT22;3600;48.568;7.870;2024-03-25T09:31:48;7.90;99.90
7117;DHT22;3600;48.568;7.870;2024-03-25T09:37:52;7.80;99.90
7117;DHT22;3600;48.568;7.870;2024-03-25T09:41:03;8.00;99.90
7117;DHT22;3600;48.568;7.870;2024-03-25T09:44:05;8.10;99.90
7117;DHT22;3600;48.568;7.870;2024-03-25T09:47:29;8.20;99.90
7117;DHT22;3600;48.568;7.870;2024-03-25T09:53:11;8.50;99.90
7117;DHT22;3600;48.568;7.870;2024-03-25T09:55:46;8.70;99.90
7117;DHT22;3600;48.568;7.870;2024-03-25T09:58:18;8.80;99.90
7117;DHT22;3600;48.568;7.870;2024-03-25T10:04:06;8.70;99.90
7117;DHT22;3600;48.568;7.870;2024-03-25T10:06:48;8.70;99.90
7117;DHT22;3600;48.568;7.870;2024-03-25T10:09:24;9.00;99.90
7117;DHT22;3600;48.568;7.870;2024-03-25T10:12:25;9.10;99.90
7117;DHT22;3600;48.568;7.870;2024-03-25T10:18:10;9.00;98.90
7117;DHT22;3600;48.568;7.870;2024-03-25T10:21:26;9.00;99.90
7117;DHT22;3600;48.568;7.870;2024-03-25T10:24:04;9.20;99.00
7117;DHT22;3600;48.568;7.870;2024-03-25T10:26:35;9.30;97.00
7117;DHT22;3600;48.568;7.870;2024-03-25T10:29:24;9.20;95.60
7117;DHT22;3600;48.568;7.870;2024-03-25T10:36:19;9.40;99.10
7117;DHT22;3600;48.568;7.870;2024-03-25T10:39:39;9.60;97.10
7117;DHT22;3600;48.568;7.870;2024-03-25T10:42:29;9.60;95.80
7117;DHT22;3600;48.568;7.870;2024-03-25T10:46:03;9.70;96.60
7117;DHT22;3600;48.568;7.870;2024-03-25T10:52:45;10.10;98.90
7117;DHT22;3600;48.568;7.870;2024-03-25T10:56:22;10.10;97.20
7117;DHT22;3600;48.568;7.870;2024-03-25T10:59:26;10.10;97.70
7117;DHT22;3600;48.568;7.870;2024-03-25T11:05:22;10.30;98.40
7117;DHT22;3600;48.568;7.870;2024-03-25T11:08:35;10.60;98.40
7117;DHT22;3600;48.568;7.870;2024-03-25T11:15:09;10.90;99.00
7117;DHT22;3600;48.568;7.870;2024-03-25T11:17:53;11.10;97.90
7117;DHT22;3600;48.568;7.870;2024-03-25T11:24:06;11.00;95.40
7117;DHT22;3600;48.568;7.870;2024-03-25T11:27:20;11.20;96.30
7117;DHT22;3600;48.568;7.870;2024-03-25T11:30:49;11.50;96.30
7117;DHT22;3600;48.568;7.870;2024-03-25T11:40:44;11.50;95.90
7117;DHT22;3600;48.568;7.870;2024-03-25T11:54:31;11.70;94.20
7117;DHT22;3600;48.568;7.870;2024-03-25T12:04:58;12.30;96.80
7117;DHT22;3600;48.568;7.870;2024-03-25T12:08:17;12.30;95.80
7117;DHT22;3600;48.568;7.870;2024-03-25T12:26:00;12.20;92.50
7117;DHT22;3600;48.568;7.870;2024-03-25T12:29:34;12.50;95.30
7117;DHT22;3600;48.568;7.870;2024-03-25T12:47:16;12.60;90.90
7117;DHT22;3600;48.568;7.870;2024-03-25T13:00:52;13.20;90.30
7117;DHT22;3600;48.568;7.870;2024-03-25T13:09:03;13.10;90.00
7117;DHT22;3600;48.568;7.870;2024-03-25T13:16:55;13.20;88.70
7117;DHT22;3600;48.568;7.870;2024-03-25T13:30:41;13.80;90.90
7117;DHT22;3600;48.568;7.870;2024-03-25T13:37:44;14.10;91.10
7117;DHT22;3600;48.568;7.870;2024-03-25T13:41:08;14.00;88.90
7117;DHT22;3600;48.568;7.870;2024-03-25T13:43:57;14.00;84.80
7117;DHT22;3600;48.568;7.870;2024-03-25T13:50:17;14.10;91.10
7117;DHT22;3600;48.568;7.870;2024-03-25T13:56:57;13.70;88.20
7117;DHT22;3600;48.568;7.870;2024-03-25T14:00:03;13.70;85.30
7117;DHT22;3600;48.568;7.870;2024-03-25T14:03:18;13.60;86.20
7117;DHT22;3600;48.568;7.870;2024-03-25T14:13:39;14.00;87.40
7117;DHT22;3600;48.568;7.870;2024-03-25T14:17:06;14.50;84.50
7117;DHT22;3600;48.568;7.870;2024-03-25T14:20:42;14.60;84.60
7117;DHT22;3600;48.568;7.870;2024-03-25T14:24:43;14.00;77.40
7117;DHT22;3600;48.568;7.870;2024-03-25T14:27:39;14.20;83.30
7117;DHT22;3600;48.568;7.870;2024-03-25T14:41:48;13.80;85.70
7117;DHT22;3600;48.568;7.870;2024-03-25T14:45:26;14.10;87.50
7117;DHT22;3600;48.568;7.870;2024-03-25T14:49:08;14.10;87.30
7117;DHT22;3600;48.568;7.870;2024-03-25T15:23:47;14.20;80.90
7117;DHT22;3600;48.568;7.870;2024-03-25T15:26:13;14.10;80.70
7117;DHT22;3600;48.568;7.870;2024-03-25T15:28:51;14.30;83.10
7117;DHT22;3600;48.568;7.870;2024-03-25T15:31:51;14.20;82.80
7117;DHT22;3600;48.568;7.870;2024-03-25T15:35:31;14.20;81.50
7117;DHT22;3600;48.568;7.870;2024-03-25T15:38:38;14.60;83.80
7117;DHT22;3600;48.568;7.870;2024-03-25T15:41:39;14.50;85.00
7117;DHT22;3600;48.568;7.870;2024-03-25T16:07:31;14.30;85.80
7117;DHT22;3600;48.568;7.870;2024-03-25T16:14:43;13.90;84.70
7117;DHT22;3600;48.568;7.870;2024-03-25T16:18:32;13.90;81.30
7117;DHT22;3600;48.568;7.870;2024-03-25T16:30:39;13.90;82.50
7117;DHT22;3600;48.568;7.870;2024-03-25T16:34:17;14.20;86.70
7117;DHT22;3600;48.568;7.870;2024-03-25T16:37:17;13.90;84.20
7117;DHT22;3600;48.568;7.870;2024-03-25T16:44:23;13.80;87.30
7117;DHT22;3600;48.568;7.870;2024-03-25T16:47:40;14.10;87.80
7117;DHT22;3600;48.568;7.870;2024-03-25T16:54:30;13.80;85.60
7117;DHT22;3600;48.568;7.870;2024-03-25T16:57:46;13.50;86.90
7117;DHT22;3600;48.568;7.870;2024-03-25T17:04:23;13.30;84.60
7117;DHT22;3600;48.568;7.870;2024-03-25T17:07:43;13.20;86.70
7117;DHT22;3600;48.568;7.870;2024-03-25T17:11:07;13.00;82.00
7117;DHT22;3600;48.568;7.870;2024-03-25T17:22:16;13.00;86.80
7117;DHT22;3600;48.568;7.870;2024-03-25T17:40:28;12.30;86.50
7117;DHT22;3600;48.568;7.870;2024-03-25T17:54:03;11.70;87.90
7117;DHT22;3600;48.568;7.870;2024-03-25T18:03:57;11.30;89.40
7117;DHT22;3600;48.568;7.870;2024-03-25T18:07:12;11.20;89.10
7117;DHT22;3600;48.568;7.870;2024-03-25T18:10:08;11.10;90.40
7117;DHT22;3600;48.568;7.870;2024-03-25T18:17:02;11.00;89.10
7117;DHT22;3600;48.568;7.870;2024-03-25T18:19:56;10.80;89.90
7117;DHT22;3600;48.568;7.870;2024-03-25T18:22:45;10.70;90.40
7117;DHT22;3600;48.568;7.870;2024-03-25T18:25:54;10.70;88.90
7117;DHT22;3600;48.568;7.870;2024-03-25T18:29:24;10.60;89.50
7117;DHT22;3600;48.568;7.870;2024-03-25T18:32:09;10.50;90.10
7117;DHT22;3600;48.568;7.870;2024-03-25T18:34:35;10.50;91.20
7117;DHT22;3600;48.568;7.870;2024-03-25T18:37:02;10.50;89.50
7117;DHT22;3600;48.568;7.870;2024-03-25T18:39:28;10.50;90.10
7117;DHT22;3600;48.568;7.870;2024-03-25T18:41:54;10.40;90.00
7117;DHT22;3600;48.568;7.870;2024-03-25T18:44:20;10.40;89.90
7117;DHT22;3600;48.568;7.870;2024-03-25T18:46:46;10.30;90.70
7117;DHT22;3600;48.568;7.870;2024-03-25T18:49:13;10.30;91.90
7117;DHT22;3600;48.568;7.870;2024-03-25T18:51:39;10.30;90.30
7117;DHT22;3600;48.568;7.870;2024-03-25T18:54:05;10.20;90.20
7117;DHT22;3600;48.568;7.870;2024-03-25T18:56:30;10.20;92.00
7117;DHT22;3600;48.568;7.870;2024-03-25T18:58:58;10.30;92.20
7117;DHT22;3600;48.568;7.870;2024-03-25T19:01:24;10.20;90.50
7117;DHT22;3600;48.568;7.870;2024-03-25T19:03:50;10.10;91.20
7117;DHT22;3600;48.568;7.870;2024-03-25T19:06:16;10.10;92.60
7117;DHT22;3600;48.568;7.870;2024-03-25T19:08:41;10.10;92.00
7117;DHT22;3600;48.568;7.870;2024-03-25T19:11:08;10.00;91.30
7117;DHT22;3600;48.568;7.870;2024-03-25T19:13:34;10.00;93.00
7117;DHT22;3600;48.568;7.870;2024-03-25T19:16:00;10.00;92.60
7117;DHT22;3600;48.568;7.870;2024-03-25T19:18:26;9.90;93.40
7117;DHT22;3600;48.568;7.870;2024-03-25T19:20:52;9.70;92.30
7117;DHT22;3600;48.568;7.870;2024-03-25T19:23:18;9.70;92.70
7117;DHT22;3600;48.568;7.870;2024-03-25T19:25:44;9.50;93.00
7117;DHT22;3600;48.568;7.870;2024-03-25T19:28:10;9.60;93.50
7117;DHT22;3600;48.568;7.870;2024-03-25T19:30:36;9.60;93.40
7117;DHT22;3600;48.568;7.870;2024-03-25T19:33:02;9.50;93.30
7117;DHT22;3600;48.568;7.870;2024-03-25T19:35:28;9.50;94.00
7117;DHT22;3600;48.568;7.870;2024-03-25T19:37:54;9.30;93.50
7117;DHT22;3600;48.568;7.870;2024-03-25T19:40:20;9.10;93.70
7117;DHT22;3600;48.568;7.870;2024-03-25T19:42:46;9.20;94.30
7117;DHT22;3600;48.568;7.870;2024-03-25T19:45:12;9.20;92.90
7117;DHT22;3600;48.568;7.870;2024-03-25T19:47:38;9.30;93.00
7117;DHT22;3600;48.568;7.870;2024-03-25T19:50:04;9.30;93.20
7117;DHT22;3600;48.568;7.870;2024-03-25T19:52:31;9.40;93.50
7117;DHT22;3600;48.568;7.870;2024-03-25T19:54:57;9.30;92.80
7117;DHT22;3600;48.568;7.870;2024-03-25T19:57:23;9.30;92.50
7117;DHT22;3600;48.568;7.870;2024-03-25T19:59:51;9.30;92.70
7117;DHT22;3600;48.568;7.870;2024-03-25T20:02:17;9.30;93.00
7117;DHT22;3600;48.568;7.870;2024-03-25T20:04:45;9.50;92.90
7117;DHT22;3600;48.568;7.870;2024-03-25T20:07:16;9.40;92.10
7117;DHT22;3600;48.568;7.870;2024-03-25T20:09:42;9.40;92.30
7117;DHT22;3600;48.568;7.870;2024-03-25T20:12:10;9.40;92.70
7117;DHT22;3600;48.568;7.870;2024-03-25T20:14:36;9.60;93.30
7117;DHT22;3600;48.568;7.870;2024-03-25T20:17:03;9.50;91.70
7117;DHT22;3600;48.568;7.870;2024-03-25T20:19:29;9.50;92.50
7117;DHT22;3600;48.568;7.870;2024-03-25T20:22:00;9.40;92.00
7117;DHT22;3600;48.568;7.870;2024-03-25T20:24:26;9.30;92.00
7117;DHT22;3600;48.568;7.870;2024-03-25T20:26:52;9.30;92.00
7117;DHT22;3600;48.568;7.870;2024-03-25T20:29:21;9.20;91.80
7117;DHT22;3600;48.568;7.870;2024-03-25T20:31:47;9.20;92.00
7117;DHT22;3600;48.568;7.870;2024-03-25T20:34:13;9.20;92.40
7117;DHT22;3600;48.568;7.870;2024-03-25T20:36:39;9.20;92.70
7117;DHT22;3600;48.568;7.870;2024-03-25T20:39:06;9.10;92.20
7117;DHT22;3600;48.568;7.870;2024-03-25T20:41:31;9.10;93.60
7117;DHT22;3600;48.568;7.870;2024-03-25T20:43:57;9.20;93.60
7117;DHT22;3600;48.568;7.870;2024-03-25T20:46:23;9.20;93.00
7117;DHT22;3600;48.568;7.870;2024-03-25T20:48:53;9.10;92.60
7117;DHT22;3600;48.568;7.870;2024-03-25T20:51:20;9.00;92.70
7117;DHT22;3600;48.568;7.870;2024-03-25T20:53:46;8.90;92.60
7117;DHT22;3600;48.568;7.870;2024-03-25T20:56:13;8.90;92.90
7117;DHT22;3600;48.568;7.870;2024-03-25T20:58:39;9.00;93.50
7117;DHT22;3600;48.568;7.870;2024-03-25T21:01:05;8.90;92.60
7117;DHT22;3600;48.568;7.870;2024-03-25T21:03:32;8.90;92.80
7117;DHT22;3600;48.568;7.870;2024-03-25T21:05:59;9.00;93.30
7117;DHT22;3600;48.568;7.870;2024-03-25T21:08:27;8.90;93.20
7117;DHT22;3600;48.568;7.870;2024-03-25T21:10:53;9.00;93.70
7117;DHT22;3600;48.568;7.870;2024-03-25T21:13:19;9.00;93.40
7117;DHT22;3600;48.568;7.870;2024-03-25T21:15:46;9.00;92.90
7117;DHT22;3600;48.568;7.870;2024-03-25T21:18:12;9.00;92.70
7117;DHT22;3600;48.568;7.870;2024-03-25T21:20:38;8.90;92.60
7117;DHT22;3600;48.568;7.870;2024-03-25T21:23:05;9.00;93.50
7117;DHT22;3600;48.568;7.870;2024-03-25T21:25:31;9.00;93.00
7117;DHT22;3600;48.568;7.870;2024-03-25T21:27:58;8.90;93.20
7117;DHT22;3600;48.568;7.870;2024-03-25T21:30:25;8.90;92.90
7117;DHT22;3600;48.568;7.870;2024-03-25T21:32:51;8.90;92.30
7117;DHT22;3600;48.568;7.870;2024-03-25T21:35:22;8.90;92.70
7117;DHT22;3600;48.568;7.870;2024-03-25T21:37:48;8.90;92.90
7117;DHT22;3600;48.568;7.870;2024-03-25T21:40:14;9.00;93.30
7117;DHT22;3600;48.568;7.870;2024-03-25T21:42:40;9.00;93.70
7117;DHT22;3600;48.568;7.870;2024-03-25T21:45:07;9.00;93.90
7117;DHT22;3600;48.568;7.870;2024-03-25T21:47:34;9.00;93.70
7117;DHT22;3600;48.568;7.870;2024-03-25T21:50:00;9.10;94.20
7117;DHT22;3600;48.568;7.870;2024-03-25T21:52:26;9.00;93.60
7117;DHT22;3600;48.568;7.870;2024-03-25T21:54:54;9.00;93.50
7117;DHT22;3600;48.568;7.870;2024-03-25T21:57:20;9.10;94.00
7117;DHT22;3600;48.568;7.870;2024-03-25T21:59:47;9.00;93.90
7117;DHT22;3600;48.568;7.870;2024-03-25T22:02:13;9.00;93.80
7117;DHT22;3600;48.568;7.870;2024-03-25T22:04:39;9.00;94.00
7117;DHT22;3600;48.568;7.870;2024-03-25T22:07:06;8.90;94.20
7117;DHT22;3600;48.568;7.870;2024-03-25T22:09:32;8.90;94.00
7117;DHT22;3600;48.568;7.870;2024-03-25T22:11:58;8.90;94.30
7117;DHT22;3600;48.568;7.870;2024-03-25T22:14:24;8.70;93.50
7117;DHT22;3600;48.568;7.870;2024-03-25T22:16:54;8.70;94.60
7117;DHT22;3600;48.568;7.870;2024-03-25T22:19:20;8.70;94.60
7117;DHT22;3600;48.568;7.870;2024-03-25T22:21:46;8.70;94.50
7117;DHT22;3600;48.568;7.870;2024-03-25T22:24:12;8.60;94.70
7117;DHT22;3600;48.568;7.870;2024-03-25T22:26:38;8.60;95.10
7117;DHT22;3600;48.568;7.870;2024-03-25T22:29:04;8.40;95.00
7117;DHT22;3600;48.568;7.870;2024-03-25T22:31:31;8.40;95.80
7117;DHT22;3600;48.568;7.870;2024-03-25T22:34:00;8.40;95.70
7117;DHT22;3600;48.568;7.870;2024-03-25T22:36:26;8.30;95.90
7117;DHT22;3600;48.568;7.870;2024-03-25T22:38:54;8.10;95.50
7117;DHT22;3600;48.568;7.870;2024-03-25T22:41:25;7.90;95.80
7117;DHT22;3600;48.568;7.870;2024-03-25T22:43:51;8.00;96.30
7117;DHT22;3600;48.568;7.870;2024-03-25T22:46:17;8.10;96.60
7117;DHT22;3600;48.568;7.870;2024-03-25T22:48:43;8.10;96.80
7117;DHT22;3600;48.568;7.870;2024-03-25T22:51:10;8.10;97.10
7117;DHT22;3600;48.568;7.870;2024-03-25T22:53:37;8.00;97.40
7117;DHT22;3600;48.568;7.870;2024-03-25T22:56:05;8.00;97.40
7117;DHT22;3600;48.568;7.870;2024-03-25T22:58:34;8.00;97.60
7117;DHT22;3600;48.568;7.870;2024-03-25T23:01:04;7.80;97.60
7117;DHT22;3600;48.568;7.870;2024-03-25T23:03:32;7.70;97.30
7117;DHT22;3600;48.568;7.870;2024-03-25T23:06:02;7.60;97.60
7117;DHT22;3600;48.568;7.870;2024-03-25T23:08:29;7.50;98.70
7117;DHT22;3600;48.568;7.870;2024-03-25T23:10:56;7.40;98.30
7117;DHT22;3600;48.568;7.870;2024-03-25T23:13:22;7.50;98.00
7117;DHT22;3600;48.568;7.870;2024-03-25T23:15:48;7.40;98.10